El-yopal, Yopal El Alcaravan Airport (SKYP)

NameYopal El Alcaravan Airport
CityEl-yopal
CountryColombia
ICAOSKYP
IATAEYP
Altitude312 m
CoordinatesGoogle Map
Live Air TrafficLiveATC.net
METARSKYP 152200Z 08005KT 9999 BKN030 30/23 A2981
2019-09-15 22:00:00 Wind: East-Northeast (80°) 2.57 m/s - Visibility: > 10000 m - Temperature: 30 °C - Dew point: 23 °C - Humidity: 66.1% - Pressure: 1009.48 hPa
Statistics

The table below shows the detailed information of all flights to/from El-yopal, Yopal El Alcaravan Airport (SKYP).